sensor_id;sensor_type;location;lat;lon;timestamp;P1;durP1;ratioP1;P2;durP2;ratioP2
31018;SDS011;17689;45.610;5.858;2022-10-16T00:00:57;4.23;;;2.20;;
31018;SDS011;17689;45.610;5.858;2022-10-16T00:03:23;4.70;;;2.20;;
31018;SDS011;17689;45.610;5.858;2022-10-16T00:05:49;4.03;;;2.10;;
31018;SDS011;17689;45.610;5.858;2022-10-16T00:08:15;3.60;;;2.00;;
31018;SDS011;17689;45.610;5.858;2022-10-16T00:10:41;5.37;;;2.73;;
31018;SDS011;17689;45.610;5.858;2022-10-16T00:13:08;8.27;;;2.10;;
31018;SDS011;17689;45.610;5.858;2022-10-16T00:15:35;4.00;;;2.30;;
31018;SDS011;17689;45.610;5.858;2022-10-16T00:18:01;4.13;;;2.20;;
31018;SDS011;17689;45.610;5.858;2022-10-16T00:20:27;6.20;;;2.30;;
31018;SDS011;17689;45.610;5.858;2022-10-16T00:22:54;4.83;;;2.30;;
31018;SDS011;17689;45.610;5.858;2022-10-16T00:25:20;4.00;;;2.70;;
31018;SDS011;17689;45.610;5.858;2022-10-16T00:27:46;5.90;;;2.40;;
31018;SDS011;17689;45.610;5.858;2022-10-16T00:30:12;4.63;;;2.47;;
31018;SDS011;17689;45.610;5.858;2022-10-16T00:32:38;4.20;;;2.50;;
31018;SDS011;17689;45.610;5.858;2022-10-16T00:35:04;3.97;;;2.60;;
31018;SDS011;17689;45.610;5.858;2022-10-16T00:37:31;5.83;;;2.30;;
31018;SDS011;17689;45.610;5.858;2022-10-16T00:39:57;4.33;;;2.43;;
31018;SDS011;17689;45.610;5.858;2022-10-16T00:42:23;4.07;;;2.70;;
31018;SDS011;17689;45.610;5.858;2022-10-16T00:44:50;5.63;;;2.30;;
31018;SDS011;17689;45.610;5.858;2022-10-16T00:49:50;3.87;;;2.40;;
31018;SDS011;17689;45.610;5.858;2022-10-16T00:52:16;5.30;;;2.30;;
31018;SDS011;17689;45.610;5.858;2022-10-16T00:54:43;4.80;;;2.70;;
31018;SDS011;17689;45.610;5.858;2022-10-16T00:57:09;4.87;;;2.70;;
31018;SDS011;17689;45.610;5.858;2022-10-16T00:59:37;4.20;;;2.37;;
31018;SDS011;17689;45.610;5.858;2022-10-16T01:02:05;2.60;;;2.40;;
31018;SDS011;17689;45.610;5.858;2022-10-16T01:04:35;4.77;;;2.40;;
31018;SDS011;17689;45.610;5.858;2022-10-16T01:09:44;4.33;;;2.43;;
31018;SDS011;17689;45.610;5.858;2022-10-16T01:17:35;4.20;;;2.40;;
31018;SDS011;17689;45.610;5.858;2022-10-16T01:22:48;3.40;;;2.30;;
31018;SDS011;17689;45.610;5.858;2022-10-16T01:25:19;3.20;;;2.20;;
31018;SDS011;17689;45.610;5.858;2022-10-16T01:27:47;3.50;;;2.30;;
31018;SDS011;17689;45.610;5.858;2022-10-16T01:30:18;4.60;;;2.30;;
31018;SDS011;17689;45.610;5.858;2022-10-16T01:32:49;4.40;;;2.00;;
31018;SDS011;17689;45.610;5.858;2022-10-16T01:37:46;7.03;;;2.30;;
31018;SDS011;17689;45.610;5.858;2022-10-16T01:40:13;4.33;;;2.20;;
31018;SDS011;17689;45.610;5.858;2022-10-16T01:42:41;3.93;;;2.37;;
31018;SDS011;17689;45.610;5.858;2022-10-16T01:45:08;5.63;;;2.00;;
31018;SDS011;17689;45.610;5.858;2022-10-16T01:47:38;10.13;;;2.50;;
31018;SDS011;17689;45.610;5.858;2022-10-16T01:50:05;3.47;;;2.17;;
31018;SDS011;17689;45.610;5.858;2022-10-16T01:52:32;2.70;;;2.10;;
31018;SDS011;17689;45.610;5.858;2022-10-16T01:55:00;5.10;;;2.30;;
31018;SDS011;17689;45.610;5.858;2022-10-16T01:57:28;3.40;;;2.40;;
31018;SDS011;17689;45.610;5.858;2022-10-16T01:59:56;4.17;;;2.47;;
31018;SDS011;17689;45.610;5.858;2022-10-16T02:02:24;2.87;;;1.93;;
31018;SDS011;17689;45.610;5.858;2022-10-16T02:05:02;2.73;;;2.17;;
31018;SDS011;17689;45.610;5.858;2022-10-16T02:07:30;4.87;;;2.20;;
31018;SDS011;17689;45.610;5.858;2022-10-16T02:09:56;2.73;;;1.90;;
31018;SDS011;17689;45.610;5.858;2022-10-16T02:12:26;3.93;;;2.00;;
31018;SDS011;17689;45.610;5.858;2022-10-16T02:14:53;3.30;;;2.20;;
31018;SDS011;17689;45.610;5.858;2022-10-16T02:17:19;4.50;;;2.10;;
31018;SDS011;17689;45.610;5.858;2022-10-16T02:19:46;2.10;;;1.70;;
31018;SDS011;17689;45.610;5.858;2022-10-16T02:22:32;3.67;;;2.00;;
31018;SDS011;17689;45.610;5.858;2022-10-16T02:25:19;2.70;;;1.90;;
31018;SDS011;17689;45.610;5.858;2022-10-16T02:27:54;7.43;;;2.40;;
31018;SDS011;17689;45.610;5.858;2022-10-16T02:32:48;4.33;;;1.90;;
31018;SDS011;17689;45.610;5.858;2022-10-16T02:35:15;4.83;;;2.30;;
31018;SDS011;17689;45.610;5.858;2022-10-16T02:37:42;2.67;;;1.70;;
31018;SDS011;17689;45.610;5.858;2022-10-16T02:40:09;4.33;;;1.80;;
31018;SDS011;17689;45.610;5.858;2022-10-16T02:42:36;4.23;;;1.80;;
31018;SDS011;17689;45.610;5.858;2022-10-16T02:45:03;3.37;;;2.03;;
31018;SDS011;17689;45.610;5.858;2022-10-16T02:47:30;6.67;;;2.20;;
31018;SDS011;17689;45.610;5.858;2022-10-16T02:49:56;5.43;;;2.10;;
31018;SDS011;17689;45.610;5.858;2022-10-16T02:52:22;5.10;;;1.93;;
31018;SDS011;17689;45.610;5.858;2022-10-16T02:54:48;5.00;;;1.97;;
31018;SDS011;17689;45.610;5.858;2022-10-16T02:57:14;3.70;;;1.80;;
31018;SDS011;17689;45.610;5.858;2022-10-16T02:59:40;3.57;;;1.87;;
31018;SDS011;17689;45.610;5.858;2022-10-16T03:02:07;2.67;;;2.00;;
31018;SDS011;17689;45.610;5.858;2022-10-16T03:04:33;6.93;;;2.13;;
31018;SDS011;17689;45.610;5.858;2022-10-16T03:06:59;2.47;;;2.00;;
31018;SDS011;17689;45.610;5.858;2022-10-16T03:09:25;2.90;;;2.03;;
31018;SDS011;17689;45.610;5.858;2022-10-16T03:11:51;3.40;;;1.90;;
31018;SDS011;17689;45.610;5.858;2022-10-16T03:14:17;4.00;;;1.90;;
31018;SDS011;17689;45.610;5.858;2022-10-16T03:16:44;5.10;;;1.90;;
31018;SDS011;17689;45.610;5.858;2022-10-16T03:19:10;3.73;;;1.90;;
31018;SDS011;17689;45.610;5.858;2022-10-16T03:21:36;3.13;;;1.90;;
31018;SDS011;17689;45.610;5.858;2022-10-16T03:24:02;3.50;;;1.87;;
31018;SDS011;17689;45.610;5.858;2022-10-16T03:26:28;3.10;;;1.83;;
31018;SDS011;17689;45.610;5.858;2022-10-16T03:28:55;2.20;;;1.87;;
31018;SDS011;17689;45.610;5.858;2022-10-16T03:31:21;5.07;;;2.20;;
31018;SDS011;17689;45.610;5.858;2022-10-16T03:33:47;2.30;;;1.90;;
31018;SDS011;17689;45.610;5.858;2022-10-16T03:36:13;2.90;;;1.90;;
31018;SDS011;17689;45.610;5.858;2022-10-16T03:38:39;3.23;;;1.97;;
31018;SDS011;17689;45.610;5.858;2022-10-16T03:41:05;3.17;;;2.00;;
31018;SDS011;17689;45.610;5.858;2022-10-16T03:43:32;2.87;;;1.93;;
31018;SDS011;17689;45.610;5.858;2022-10-16T03:45:59;2.53;;;2.10;;
31018;SDS011;17689;45.610;5.858;2022-10-16T03:48:25;3.43;;;2.00;;
31018;SDS011;17689;45.610;5.858;2022-10-16T03:50:51;3.47;;;2.10;;
31018;SDS011;17689;45.610;5.858;2022-10-16T03:53:17;2.10;;;1.73;;
31018;SDS011;17689;45.610;5.858;2022-10-16T03:55:44;2.73;;;1.90;;
31018;SDS011;17689;45.610;5.858;2022-10-16T03:58:10;4.53;;;2.20;;
31018;SDS011;17689;45.610;5.858;2022-10-16T04:00:43;3.33;;;1.83;;
31018;SDS011;17689;45.610;5.858;2022-10-16T04:03:10;4.40;;;2.10;;
31018;SDS011;17689;45.610;5.858;2022-10-16T04:05:36;3.23;;;1.97;;
31018;SDS011;17689;45.610;5.858;2022-10-16T04:08:02;4.10;;;1.97;;
31018;SDS011;17689;45.610;5.858;2022-10-16T04:10:29;3.23;;;1.80;;
31018;SDS011;17689;45.610;5.858;2022-10-16T04:12:55;2.57;;;1.80;;
31018;SDS011;17689;45.610;5.858;2022-10-16T04:15:24;5.47;;;2.00;;
31018;SDS011;17689;45.610;5.858;2022-10-16T04:17:50;6.47;;;2.20;;
31018;SDS011;17689;45.610;5.858;2022-10-16T04:20:17;3.30;;;2.20;;
31018;SDS011;17689;45.610;5.858;2022-10-16T04:22:43;2.93;;;1.90;;
31018;SDS011;17689;45.610;5.858;2022-10-16T04:25:10;2.77;;;2.10;;
31018;SDS011;17689;45.610;5.858;2022-10-16T04:27:37;3.93;;;2.17;;
31018;SDS011;17689;45.610;5.858;2022-10-16T04:30:03;6.10;;;2.07;;
31018;SDS011;17689;45.610;5.858;2022-10-16T04:32:29;4.33;;;1.93;;
31018;SDS011;17689;45.610;5.858;2022-10-16T04:34:56;4.10;;;2.10;;
31018;SDS011;17689;45.610;5.858;2022-10-16T04:37:25;2.93;;;2.13;;
31018;SDS011;17689;45.610;5.858;2022-10-16T04:39:52;4.77;;;2.10;;
31018;SDS011;17689;45.610;5.858;2022-10-16T04:42:18;3.23;;;1.83;;
31018;SDS011;17689;45.610;5.858;2022-10-16T04:44:44;4.47;;;2.20;;
31018;SDS011;17689;45.610;5.858;2022-10-16T04:47:10;2.53;;;2.00;;
31018;SDS011;17689;45.610;5.858;2022-10-16T04:49:37;3.13;;;2.13;;
31018;SDS011;17689;45.610;5.858;2022-10-16T04:52:03;3.83;;;2.27;;
31018;SDS011;17689;45.610;5.858;2022-10-16T04:54:29;2.77;;;2.30;;
31018;SDS011;17689;45.610;5.858;2022-10-16T04:56:55;2.50;;;2.20;;
31018;SDS011;17689;45.610;5.858;2022-10-16T04:59:22;4.03;;;2.30;;
31018;SDS011;17689;45.610;5.858;2022-10-16T05:01:48;2.93;;;2.10;;
31018;SDS011;17689;45.610;5.858;2022-10-16T05:04:14;3.43;;;2.33;;
31018;SDS011;17689;45.610;5.858;2022-10-16T05:06:41;2.53;;;2.10;;
31018;SDS011;17689;45.610;5.858;2022-10-16T05:09:07;4.93;;;2.40;;
31018;SDS011;17689;45.610;5.858;2022-10-16T05:11:33;7.57;;;2.20;;
31018;SDS011;17689;45.610;5.858;2022-10-16T05:13:59;6.07;;;2.30;;
31018;SDS011;17689;45.610;5.858;2022-10-16T05:16:26;3.77;;;2.13;;
31018;SDS011;17689;45.610;5.858;2022-10-16T05:18:52;5.83;;;2.80;;
31018;SDS011;17689;45.610;5.858;2022-10-16T05:21:19;6.83;;;4.00;;
31018;SDS011;17689;45.610;5.858;2022-10-16T05:23:45;6.40;;;3.80;;
31018;SDS011;17689;45.610;5.858;2022-10-16T05:26:11;5.70;;;3.60;;
31018;SDS011;17689;45.610;5.858;2022-10-16T05:28:37;5.47;;;3.00;;
31018;SDS011;17689;45.610;5.858;2022-10-16T05:31:07;3.37;;;2.20;;
31018;SDS011;17689;45.610;5.858;2022-10-16T05:33:33;4.03;;;2.10;;
31018;SDS011;17689;45.610;5.858;2022-10-16T05:36:03;5.67;;;2.00;;
31018;SDS011;17689;45.610;5.858;2022-10-16T05:38:30;4.07;;;2.20;;
31018;SDS011;17689;45.610;5.858;2022-10-16T05:40:56;2.10;;;1.70;;
31018;SDS011;17689;45.610;5.858;2022-10-16T05:43:23;2.73;;;1.90;;
31018;SDS011;17689;45.610;5.858;2022-10-16T05:45:56;3.83;;;2.20;;
31018;SDS011;17689;45.610;5.858;2022-10-16T05:48:22;4.77;;;2.07;;
31018;SDS011;17689;45.610;5.858;2022-10-16T05:50:55;5.27;;;2.40;;
31018;SDS011;17689;45.610;5.858;2022-10-16T05:53:22;6.47;;;2.27;;
31018;SDS011;17689;45.610;5.858;2022-10-16T05:55:56;3.27;;;2.10;;
31018;SDS011;17689;45.610;5.858;2022-10-16T05:58:23;4.07;;;2.60;;
31018;SDS011;17689;45.610;5.858;2022-10-16T06:00:55;3.87;;;2.37;;
31018;SDS011;17689;45.610;5.858;2022-10-16T06:03:21;4.87;;;2.47;;
31018;SDS011;17689;45.610;5.858;2022-10-16T06:05:47;3.73;;;2.50;;
31018;SDS011;17689;45.610;5.858;2022-10-16T06:08:13;4.50;;;2.50;;
31018;SDS011;17689;45.610;5.858;2022-10-16T06:10:40;6.00;;;2.40;;
31018;SDS011;17689;45.610;5.858;2022-10-16T06:13:06;4.13;;;1.90;;
31018;SDS011;17689;45.610;5.858;2022-10-16T06:15:32;2.73;;;1.80;;
31018;SDS011;17689;45.610;5.858;2022-10-16T06:17:58;4.53;;;2.10;;
31018;SDS011;17689;45.610;5.858;2022-10-16T06:20:24;2.60;;;1.83;;
31018;SDS011;17689;45.610;5.858;2022-10-16T06:22:50;3.23;;;1.90;;
31018;SDS011;17689;45.610;5.858;2022-10-16T06:25:16;4.60;;;1.90;;
31018;SDS011;17689;45.610;5.858;2022-10-16T06:27:42;6.30;;;2.00;;
31018;SDS011;17689;45.610;5.858;2022-10-16T06:30:09;5.07;;;1.80;;
31018;SDS011;17689;45.610;5.858;2022-10-16T06:32:35;3.70;;;1.90;;
31018;SDS011;17689;45.610;5.858;2022-10-16T06:35:01;2.30;;;1.73;;
31018;SDS011;17689;45.610;5.858;2022-10-16T06:37:27;3.87;;;1.97;;
31018;SDS011;17689;45.610;5.858;2022-10-16T06:39:53;2.50;;;1.70;;
31018;SDS011;17689;45.610;5.858;2022-10-16T06:42:20;3.50;;;1.60;;
31018;SDS011;17689;45.610;5.858;2022-10-16T06:44:46;2.93;;;1.80;;
31018;SDS011;17689;45.610;5.858;2022-10-16T06:47:12;3.90;;;1.80;;
31018;SDS011;17689;45.610;5.858;2022-10-16T06:49:38;2.00;;;1.53;;
31018;SDS011;17689;45.610;5.858;2022-10-16T06:52:04;2.60;;;1.80;;
31018;SDS011;17689;45.610;5.858;2022-10-16T06:54:30;5.73;;;2.00;;
31018;SDS011;17689;45.610;5.858;2022-10-16T06:56:56;2.20;;;1.67;;
31018;SDS011;17689;45.610;5.858;2022-10-16T06:59:25;2.63;;;1.60;;
31018;SDS011;17689;45.610;5.858;2022-10-16T07:01:51;3.63;;;1.73;;
31018;SDS011;17689;45.610;5.858;2022-10-16T07:04:17;4.13;;;1.70;;
31018;SDS011;17689;45.610;5.858;2022-10-16T07:06:43;4.27;;;1.70;;
31018;SDS011;17689;45.610;5.858;2022-10-16T07:09:09;3.00;;;1.60;;
31018;SDS011;17689;45.610;5.858;2022-10-16T07:11:37;4.20;;;2.03;;
31018;SDS011;17689;45.610;5.858;2022-10-16T07:14:04;1.70;;;1.60;;
31018;SDS011;17689;45.610;5.858;2022-10-16T07:16:31;2.10;;;1.80;;
31018;SDS011;17689;45.610;5.858;2022-10-16T07:18:58;2.60;;;1.70;;
31018;SDS011;17689;45.610;5.858;2022-10-16T07:21:25;3.70;;;1.73;;
31018;SDS011;17689;45.610;5.858;2022-10-16T07:23:52;5.10;;;1.77;;
31018;SDS011;17689;45.610;5.858;2022-10-16T07:26:19;3.93;;;1.80;;
31018;SDS011;17689;45.610;5.858;2022-10-16T07:28:45;4.77;;;2.00;;
31018;SDS011;17689;45.610;5.858;2022-10-16T07:31:13;4.67;;;1.90;;
31018;SDS011;17689;45.610;5.858;2022-10-16T07:33:40;2.40;;;2.13;;
31018;SDS011;17689;45.610;5.858;2022-10-16T07:36:10;4.43;;;2.10;;
31018;SDS011;17689;45.610;5.858;2022-10-16T07:38:37;2.97;;;1.77;;
31018;SDS011;17689;45.610;5.858;2022-10-16T07:41:04;2.03;;;1.83;;
31018;SDS011;17689;45.610;5.858;2022-10-16T07:43:31;3.03;;;1.70;;
31018;SDS011;17689;45.610;5.858;2022-10-16T07:45:57;4.70;;;1.80;;
31018;SDS011;17689;45.610;5.858;2022-10-16T07:48:26;4.40;;;1.80;;
31018;SDS011;17689;45.610;5.858;2022-10-16T07:50:52;2.90;;;1.90;;
31018;SDS011;17689;45.610;5.858;2022-10-16T07:53:18;2.50;;;1.70;;
31018;SDS011;17689;45.610;5.858;2022-10-16T07:55:44;3.57;;;1.80;;
31018;SDS011;17689;45.610;5.858;2022-10-16T07:58:10;3.10;;;1.60;;
31018;SDS011;17689;45.610;5.858;2022-10-16T08:00:37;1.87;;;1.60;;
31018;SDS011;17689;45.610;5.858;2022-10-16T08:03:03;2.47;;;1.77;;
31018;SDS011;17689;45.610;5.858;2022-10-16T08:05:30;2.77;;;1.63;;
31018;SDS011;17689;45.610;5.858;2022-10-16T08:07:57;1.80;;;1.43;;
31018;SDS011;17689;45.610;5.858;2022-10-16T08:10:24;2.77;;;1.40;;
31018;SDS011;17689;45.610;5.858;2022-10-16T08:12:51;1.67;;;1.50;;
31018;SDS011;17689;45.610;5.858;2022-10-16T08:15:17;2.90;;;1.70;;
31018;SDS011;17689;45.610;5.858;2022-10-16T08:17:44;1.77;;;1.47;;
31018;SDS011;17689;45.610;5.858;2022-10-16T08:20:11;1.60;;;1.40;;
31018;SDS011;17689;45.610;5.858;2022-10-16T08:22:37;3.70;;;1.63;;
31018;SDS011;17689;45.610;5.858;2022-10-16T08:25:04;2.27;;;1.33;;
31018;SDS011;17689;45.610;5.858;2022-10-16T08:27:31;2.43;;;1.60;;
31018;SDS011;17689;45.610;5.858;2022-10-16T08:29:57;1.70;;;1.47;;
31018;SDS011;17689;45.610;5.858;2022-10-16T08:32:24;3.17;;;1.43;;
31018;SDS011;17689;45.610;5.858;2022-10-16T08:34:50;3.97;;;1.40;;
31018;SDS011;17689;45.610;5.858;2022-10-16T08:37:17;2.67;;;1.60;;
31018;SDS011;17689;45.610;5.858;2022-10-16T08:39:43;2.53;;;1.63;;
31018;SDS011;17689;45.610;5.858;2022-10-16T08:44:46;3.17;;;1.60;;
31018;SDS011;17689;45.610;5.858;2022-10-16T08:47:19;1.67;;;1.40;;
31018;SDS011;17689;45.610;5.858;2022-10-16T08:52:20;2.87;;;1.60;;
31018;SDS011;17689;45.610;5.858;2022-10-16T08:54:47;1.60;;;1.50;;
31018;SDS011;17689;45.610;5.858;2022-10-16T08:57:16;2.00;;;1.77;;
31018;SDS011;17689;45.610;5.858;2022-10-16T08:59:43;3.00;;;2.10;;
31018;SDS011;17689;45.610;5.858;2022-10-16T09:10:11;4.33;;;2.00;;
31018;SDS011;17689;45.610;5.858;2022-10-16T09:20:18;3.20;;;1.60;;
31018;SDS011;17689;45.610;5.858;2022-10-16T09:22:46;2.00;;;1.60;;
31018;SDS011;17689;45.610;5.858;2022-10-16T09:25:13;2.60;;;1.80;;
31018;SDS011;17689;45.610;5.858;2022-10-16T09:27:40;1.80;;;1.57;;
31018;SDS011;17689;45.610;5.858;2022-10-16T09:30:11;2.37;;;1.57;;
31018;SDS011;17689;45.610;5.858;2022-10-16T09:32:38;3.43;;;1.73;;
31018;SDS011;17689;45.610;5.858;2022-10-16T09:35:09;6.90;;;1.90;;
31018;SDS011;17689;45.610;5.858;2022-10-16T09:37:37;3.00;;;1.60;;
31018;SDS011;17689;45.610;5.858;2022-10-16T09:40:03;2.40;;;1.93;;
31018;SDS011;17689;45.610;5.858;2022-10-16T09:42:30;4.17;;;1.70;;
31018;SDS011;17689;45.610;5.858;2022-10-16T09:44:57;4.73;;;1.87;;
31018;SDS011;17689;45.610;5.858;2022-10-16T09:47:24;3.20;;;1.50;;
31018;SDS011;17689;45.610;5.858;2022-10-16T09:49:55;3.67;;;1.50;;
31018;SDS011;17689;45.610;5.858;2022-10-16T09:52:23;2.93;;;1.57;;
31018;SDS011;17689;45.610;5.858;2022-10-16T09:54:54;3.13;;;1.40;;
31018;SDS011;17689;45.610;5.858;2022-10-16T09:57:20;2.57;;;1.50;;
31018;SDS011;17689;45.610;5.858;2022-10-16T10:02:14;3.70;;;1.40;;
31018;SDS011;17689;45.610;5.858;2022-10-16T10:04:44;4.73;;;1.60;;
31018;SDS011;17689;45.610;5.858;2022-10-16T10:07:20;1.67;;;1.57;;
31018;SDS011;17689;45.610;5.858;2022-10-16T10:09:49;5.57;;;1.60;;
31018;SDS011;17689;45.610;5.858;2022-10-16T10:12:24;8.97;;;1.70;;
31018;SDS011;17689;45.610;5.858;2022-10-16T10:14:52;2.03;;;1.40;;
31018;SDS011;17689;45.610;5.858;2022-10-16T10:19:52;4.63;;;1.40;;
31018;SDS011;17689;45.610;5.858;2022-10-16T10:22:32;3.93;;;1.70;;
31018;SDS011;17689;45.610;5.858;2022-10-16T10:30:03;1.70;;;1.60;;
31018;SDS011;17689;45.610;5.858;2022-10-16T10:38:06;5.63;;;1.63;;
31018;SDS011;17689;45.610;5.858;2022-10-16T10:40:45;2.40;;;1.70;;
31018;SDS011;17689;45.610;5.858;2022-10-16T10:45:44;2.30;;;1.83;;
31018;SDS011;17689;45.610;5.858;2022-10-16T10:50:57;3.00;;;1.70;;
31018;SDS011;17689;45.610;5.858;2022-10-16T10:55:54;2.50;;;1.40;;
31018;SDS011;17689;45.610;5.858;2022-10-16T10:58:49;3.20;;;1.57;;
31018;SDS011;17689;45.610;5.858;2022-10-16T11:01:14;2.63;;;1.53;;
31018;SDS011;17689;45.610;5.858;2022-10-16T11:06:08;2.07;;;1.50;;
31018;SDS011;17689;45.610;5.858;2022-10-16T11:08:49;3.00;;;1.80;;
31018;SDS011;17689;45.610;5.858;2022-10-16T11:13:55;2.80;;;1.50;;
31018;SDS011;17689;45.610;5.858;2022-10-16T11:16:28;2.40;;;1.73;;
31018;SDS011;17689;45.610;5.858;2022-10-16T11:18:56;3.60;;;1.60;;
31018;SDS011;17689;45.610;5.858;2022-10-16T11:21:25;3.20;;;1.60;;
31018;SDS011;17689;45.610;5.858;2022-10-16T11:26:39;2.93;;;1.50;;
31018;SDS011;17689;45.610;5.858;2022-10-16T11:29:10;2.23;;;1.50;;
31018;SDS011;17689;45.610;5.858;2022-10-16T11:31:40;4.07;;;1.50;;
31018;SDS011;17689;45.610;5.858;2022-10-16T11:36:50;1.73;;;1.60;;
31018;SDS011;17689;45.610;5.858;2022-10-16T11:39:21;2.23;;;1.60;;
31018;SDS011;17689;45.610;5.858;2022-10-16T11:41:49;2.50;;;1.50;;
31018;SDS011;17689;45.610;5.858;2022-10-16T11:44:19;2.73;;;1.90;;
31018;SDS011;17689;45.610;5.858;2022-10-16T11:46:59;2.17;;;1.60;;
31018;SDS011;17689;45.610;5.858;2022-10-16T11:49:27;2.50;;;1.60;;
31018;SDS011;17689;45.610;5.858;2022-10-16T11:52:14;3.33;;;1.80;;
31018;SDS011;17689;45.610;5.858;2022-10-16T11:54:49;1.70;;;1.60;;
31018;SDS011;17689;45.610;5.858;2022-10-16T11:57:49;1.90;;;1.60;;
31018;SDS011;17689;45.610;5.858;2022-10-16T12:00:09;1.77;;;1.60;;
31018;SDS011;17689;45.610;5.858;2022-10-16T12:02:49;2.10;;;1.60;;
31018;SDS011;17689;45.610;5.858;2022-10-16T12:10:29;3.07;;;1.30;;
31018;SDS011;17689;45.610;5.858;2022-10-16T12:13:26;3.60;;;1.67;;
31018;SDS011;17689;45.610;5.858;2022-10-16T12:15:48;1.83;;;1.47;;
31018;SDS011;17689;45.610;5.858;2022-10-16T12:18:22;3.23;;;1.50;;
31018;SDS011;17689;45.610;5.858;2022-10-16T12:20:54;2.57;;;1.70;;
31018;SDS011;17689;45.610;5.858;2022-10-16T12:23:23;3.73;;;1.80;;
31018;SDS011;17689;45.610;5.858;2022-10-16T12:25:57;2.50;;;1.60;;
31018;SDS011;17689;45.610;5.858;2022-10-16T12:28:28;3.20;;;1.70;;
31018;SDS011;17689;45.610;5.858;2022-10-16T12:30:58;5.70;;;1.87;;
31018;SDS011;17689;45.610;5.858;2022-10-16T12:33:31;1.93;;;1.57;;
31018;SDS011;17689;45.610;5.858;2022-10-16T12:35:59;2.20;;;1.50;;
31018;SDS011;17689;45.610;5.858;2022-10-16T12:41:03;2.80;;;1.50;;
31018;SDS011;17689;45.610;5.858;2022-10-16T12:46:04;2.70;;;1.83;;
31018;SDS011;17689;45.610;5.858;2022-10-16T12:48:31;1.90;;;1.70;;
31018;SDS011;17689;45.610;5.858;2022-10-16T12:51:09;3.00;;;1.80;;
31018;SDS011;17689;45.610;5.858;2022-10-16T12:53:35;3.10;;;1.70;;
31018;SDS011;17689;45.610;5.858;2022-10-16T13:01:07;4.33;;;2.10;;
31018;SDS011;17689;45.610;5.858;2022-10-16T13:06:29;3.73;;;1.80;;
31018;SDS011;17689;45.610;5.858;2022-10-16T13:19:32;3.30;;;1.90;;
31018;SDS011;17689;45.610;5.858;2022-10-16T13:30:00;3.40;;;1.80;;
31018;SDS011;17689;45.610;5.858;2022-10-16T13:32:27;2.47;;;1.87;;
31018;SDS011;17689;45.610;5.858;2022-10-16T13:34:54;4.10;;;1.70;;
31018;SDS011;17689;45.610;5.858;2022-10-16T13:37:21;2.77;;;1.80;;
31018;SDS011;17689;45.610;5.858;2022-10-16T13:39:48;3.23;;;1.90;;
31018;SDS011;17689;45.610;5.858;2022-10-16T13:42:28;4.23;;;2.23;;
31018;SDS011;17689;45.610;5.858;2022-10-16T13:44:55;4.23;;;1.80;;
31018;SDS011;17689;45.610;5.858;2022-10-16T13:47:23;2.90;;;2.00;;
31018;SDS011;17689;45.610;5.858;2022-10-16T13:50:06;2.50;;;1.90;;
31018;SDS011;17689;45.610;5.858;2022-10-16T13:52:32;2.43;;;1.90;;
31018;SDS011;17689;45.610;5.858;2022-10-16T13:54:59;2.83;;;1.90;;
31018;SDS011;17689;45.610;5.858;2022-10-16T13:57:26;4.37;;;1.90;;
31018;SDS011;17689;45.610;5.858;2022-10-16T13:59:52;3.30;;;1.77;;
31018;SDS011;17689;45.610;5.858;2022-10-16T14:02:20;2.83;;;1.90;;
31018;SDS011;17689;45.610;5.858;2022-10-16T14:04:48;4.23;;;1.90;;
31018;SDS011;17689;45.610;5.858;2022-10-16T14:07:18;8.50;;;2.30;;
31018;SDS011;17689;45.610;5.858;2022-10-16T14:09:48;3.90;;;2.03;;
31018;SDS011;17689;45.610;5.858;2022-10-16T14:12:15;2.37;;;2.07;;
31018;SDS011;17689;45.610;5.858;2022-10-16T14:14:42;4.13;;;2.40;;
31018;SDS011;17689;45.610;5.858;2022-10-16T14:17:15;5.40;;;2.43;;
31018;SDS011;17689;45.610;5.858;2022-10-16T14:19:45;4.07;;;2.50;;
31018;SDS011;17689;45.610;5.858;2022-10-16T14:24:56;5.43;;;2.37;;
31018;SDS011;17689;45.610;5.858;2022-10-16T14:27:26;7.30;;;2.70;;
31018;SDS011;17689;45.610;5.858;2022-10-16T14:30:05;4.67;;;2.30;;
31018;SDS011;17689;45.610;5.858;2022-10-16T14:32:34;7.37;;;2.50;;
31018;SDS011;17689;45.610;5.858;2022-10-16T14:35:01;3.93;;;2.80;;
31018;SDS011;17689;45.610;5.858;2022-10-16T14:37:27;3.23;;;2.57;;
31018;SDS011;17689;45.610;5.858;2022-10-16T14:39:54;4.63;;;2.77;;
31018;SDS011;17689;45.610;5.858;2022-10-16T14:42:22;4.27;;;2.80;;
31018;SDS011;17689;45.610;5.858;2022-10-16T14:44:53;4.67;;;2.57;;
31018;SDS011;17689;45.610;5.858;2022-10-16T14:47:21;10.67;;;2.77;;
31018;SDS011;17689;45.610;5.858;2022-10-16T14:49:51;5.17;;;2.70;;
31018;SDS011;17689;45.610;5.858;2022-10-16T14:52:20;16.93;;;3.70;;
31018;SDS011;17689;45.610;5.858;2022-10-16T14:54:50;4.60;;;2.60;;
31018;SDS011;17689;45.610;5.858;2022-10-16T14:57:23;6.20;;;2.30;;
31018;SDS011;17689;45.610;5.858;2022-10-16T14:59:50;5.97;;;2.57;;
31018;SDS011;17689;45.610;5.858;2022-10-16T15:04:47;5.13;;;2.47;;
31018;SDS011;17689;45.610;5.858;2022-10-16T15:07:14;3.17;;;2.30;;
31018;SDS011;17689;45.610;5.858;2022-10-16T15:09:40;8.33;;;2.70;;
31018;SDS011;17689;45.610;5.858;2022-10-16T15:12:07;6.77;;;2.57;;
31018;SDS011;17689;45.610;5.858;2022-10-16T15:14:33;8.77;;;2.47;;
31018;SDS011;17689;45.610;5.858;2022-10-16T15:17:01;7.90;;;2.80;;
31018;SDS011;17689;45.610;5.858;2022-10-16T15:19:28;4.87;;;2.40;;
31018;SDS011;17689;45.610;5.858;2022-10-16T15:21:54;6.40;;;2.40;;
31018;SDS011;17689;45.610;5.858;2022-10-16T15:24:21;16.10;;;3.30;;
31018;SDS011;17689;45.610;5.858;2022-10-16T15:26:48;7.77;;;2.67;;
31018;SDS011;17689;45.610;5.858;2022-10-16T15:29:14;7.33;;;3.00;;
31018;SDS011;17689;45.610;5.858;2022-10-16T15:31:41;4.47;;;2.40;;
31018;SDS011;17689;45.610;5.858;2022-10-16T15:34:08;9.87;;;2.90;;
31018;SDS011;17689;45.610;5.858;2022-10-16T15:36:36;7.97;;;3.00;;
31018;SDS011;17689;45.610;5.858;2022-10-16T15:39:03;3.67;;;2.57;;
31018;SDS011;17689;45.610;5.858;2022-10-16T15:41:29;3.70;;;2.33;;
31018;SDS011;17689;45.610;5.858;2022-10-16T15:43:56;4.20;;;2.30;;
31018;SDS011;17689;45.610;5.858;2022-10-16T15:46:23;3.90;;;2.07;;
31018;SDS011;17689;45.610;5.858;2022-10-16T15:48:50;6.70;;;2.80;;
31018;SDS011;17689;45.610;5.858;2022-10-16T15:51:17;3.70;;;2.50;;
31018;SDS011;17689;45.610;5.858;2022-10-16T15:53:43;7.97;;;2.40;;
31018;SDS011;17689;45.610;5.858;2022-10-16T15:56:11;7.37;;;2.63;;
31018;SDS011;17689;45.610;5.858;2022-10-16T15:58:38;2.90;;;2.60;;
31018;SDS011;17689;45.610;5.858;2022-10-16T16:01:04;2.93;;;2.40;;
31018;SDS011;17689;45.610;5.858;2022-10-16T16:03:31;7.67;;;2.83;;
31018;SDS011;17689;45.610;5.858;2022-10-16T16:05:58;5.87;;;2.80;;
31018;SDS011;17689;45.610;5.858;2022-10-16T16:08:24;3.20;;;2.40;;
31018;SDS011;17689;45.610;5.858;2022-10-16T16:10:58;11.03;;;2.90;;
31018;SDS011;17689;45.610;5.858;2022-10-16T16:13:24;8.93;;;3.00;;
31018;SDS011;17689;45.610;5.858;2022-10-16T16:15:51;9.77;;;3.20;;
31018;SDS011;17689;45.610;5.858;2022-10-16T16:18:17;3.17;;;2.57;;
31018;SDS011;17689;45.610;5.858;2022-10-16T16:20:43;7.00;;;3.00;;
31018;SDS011;17689;45.610;5.858;2022-10-16T16:23:10;6.50;;;3.00;;
31018;SDS011;17689;45.610;5.858;2022-10-16T16:25:36;7.20;;;2.90;;
31018;SDS011;17689;45.610;5.858;2022-10-16T16:28:02;3.10;;;2.80;;
31018;SDS011;17689;45.610;5.858;2022-10-16T16:30:28;3.87;;;2.80;;
31018;SDS011;17689;45.610;5.858;2022-10-16T16:32:54;4.67;;;3.00;;
31018;SDS011;17689;45.610;5.858;2022-10-16T16:35:21;4.50;;;3.00;;
31018;SDS011;17689;45.610;5.858;2022-10-16T16:37:47;5.27;;;3.03;;
31018;SDS011;17689;45.610;5.858;2022-10-16T16:40:13;3.47;;;2.90;;
31018;SDS011;17689;45.610;5.858;2022-10-16T16:42:39;4.90;;;2.97;;
31018;SDS011;17689;45.610;5.858;2022-10-16T16:45:06;5.43;;;2.90;;
31018;SDS011;17689;45.610;5.858;2022-10-16T16:47:32;5.13;;;2.73;;